createdAt,value
2022-10-15T00:01:43.885Z,99180.00
2022-10-15T00:04:11.405Z,99179.84
2022-10-15T00:06:40.267Z,99177.34
2022-10-15T00:09:07.681Z,99177.72
2022-10-15T00:11:35.566Z,99171.41
2022-10-15T00:14:02.920Z,99183.97
2022-10-15T00:16:30.476Z,99183.56
2022-10-15T00:18:59.163Z,99185.22
2022-10-15T00:21:26.872Z,99171.03
2022-10-15T00:23:56.297Z,99170.44
2022-10-15T00:26:26.167Z,99166.13
2022-10-15T00:28:55.231Z,99167.16
2022-10-15T00:31:24.299Z,99160.44
2022-10-15T00:33:52.296Z,99164.72
2022-10-15T00:36:22.388Z,99170.91
2022-10-15T00:38:50.596Z,99165.72
2022-10-15T00:41:21.972Z,99171.47
2022-10-15T00:43:50.695Z,99168.81
2022-10-15T00:46:22.510Z,99175.75
2022-10-15T00:48:52.845Z,99174.56
2022-10-15T00:51:21.002Z,99182.53
2022-10-15T00:53:49.541Z,99182.94
2022-10-15T00:56:22.093Z,99167.94
2022-10-15T00:58:49.945Z,99173.44
2022-10-15T01:01:17.393Z,99160.25
2022-10-15T01:03:44.808Z,99168.78
2022-10-15T01:06:12.254Z,99162.59
2022-10-15T01:08:41.568Z,99162.75
2022-10-15T01:11:22.942Z,99148.69
2022-10-15T01:13:54.917Z,99154.53
2022-10-15T01:16:26.117Z,99157.28
2022-10-15T01:18:57.650Z,99152.81
2022-10-15T01:21:30.089Z,99156.50
2022-10-15T01:24:43.850Z,99155.66
2022-10-15T01:27:22.445Z,99148.19
2022-10-15T01:30:25.608Z,99146.84
2022-10-15T01:33:10.472Z,99147.50
2022-10-15T01:35:45.373Z,99141.09
2022-10-15T01:38:28.524Z,99144.75
2022-10-15T01:40:58.499Z,99140.34
2022-10-15T01:43:31.509Z,99153.16
2022-10-15T01:46:28.272Z,99155.41
2022-10-15T01:49:05.125Z,99155.84
2022-10-15T01:51:34.433Z,99160.75
2022-10-15T01:54:03.197Z,99157.16
2022-10-15T01:56:32.909Z,99153.78
2022-10-15T01:59:00.465Z,99144.06
2022-10-15T02:01:30.841Z,99141.00
2022-10-15T02:03:58.270Z,99139.34
2022-10-15T02:06:31.740Z,99138.72
2022-10-15T02:09:08.841Z,99129.75
2022-10-15T02:11:42.869Z,99136.59
2022-10-15T02:14:12.737Z,99139.59
2022-10-15T02:16:45.118Z,99136.81
2022-10-15T02:19:19.538Z,99138.13
2022-10-15T02:21:48.865Z,99135.28
2022-10-15T02:24:20.844Z,99142.31
2022-10-15T02:26:48.955Z,99129.28
2022-10-15T02:29:19.069Z,99136.97
2022-10-15T02:31:48.965Z,99131.97
2022-10-15T02:34:18.996Z,99128.06
2022-10-15T02:36:46.930Z,99128.69
2022-10-15T02:39:16.981Z,99122.28
2022-10-15T02:41:44.771Z,99109.84
2022-10-15T02:44:13.967Z,99105.66
2022-10-15T02:46:41.533Z,99111.31
2022-10-15T02:49:12.398Z,99115.78
2022-10-15T02:51:39.927Z,99116.81
2022-10-15T02:54:08.415Z,99118.00
2022-10-15T02:56:39.040Z,99117.72
2022-10-15T02:59:06.926Z,99118.22
2022-10-15T03:01:34.295Z,99113.59
2022-10-15T03:04:02.457Z,99113.59
2022-10-15T03:06:32.301Z,99109.47
2022-10-15T03:09:00.045Z,99117.50
2022-10-15T03:11:27.627Z,99123.78
2022-10-15T03:13:55.130Z,99118.56
2022-10-15T03:16:22.584Z,99122.06
2022-10-15T03:18:50.341Z,99127.81
2022-10-15T03:21:19.389Z,99130.66
2022-10-15T03:23:48.772Z,99129.84
2022-10-15T03:26:20.249Z,99120.13
2022-10-15T03:28:47.643Z,99119.72
2022-10-15T03:31:26.240Z,99122.84
2022-10-15T03:33:56.783Z,99132.38
2022-10-15T03:36:26.394Z,99124.59
2022-10-15T03:38:55.191Z,99128.31
2022-10-15T03:41:23.774Z,99127.91
2022-10-15T03:43:52.065Z,99128.28
2022-10-15T03:46:19.486Z,99125.78
2022-10-15T03:48:50.818Z,99117.94
2022-10-15T03:51:23.482Z,99119.59
2022-10-15T03:53:58.669Z,99114.22
2022-10-15T03:56:26.096Z,99114.97
2022-10-15T03:58:59.152Z,99113.69
2022-10-15T04:01:26.612Z,99112.63
2022-10-15T04:03:54.362Z,99116.13
2022-10-15T04:06:25.488Z,99123.78
2022-10-15T04:08:53.771Z,99129.34
2022-10-15T04:11:26.024Z,99134.25
2022-10-15T04:14:01.884Z,99125.56
2022-10-15T04:16:31.785Z,99131.09
2022-10-15T04:18:59.519Z,99130.63
2022-10-15T04:21:27.282Z,99129.81
2022-10-15T04:23:59.272Z,99127.28
2022-10-15T04:26:36.653Z,99130.19
2022-10-15T04:29:04.456Z,99127.72
2022-10-15T04:31:33.324Z,99123.25
2022-10-15T04:34:01.704Z,99121.00
2022-10-15T04:36:29.424Z,99120.66
2022-10-15T04:39:01.016Z,99123.81
2022-10-15T04:41:39.017Z,99128.09
2022-10-15T04:44:18.316Z,99115.59
2022-10-15T04:46:52.328Z,99117.69
2022-10-15T04:49:32.753Z,99117.72
2022-10-15T04:52:01.359Z,99120.84
2022-10-15T04:54:31.519Z,99121.44
2022-10-15T04:57:04.181Z,99114.19
2022-10-15T04:59:31.803Z,99125.94
2022-10-15T05:02:22.656Z,99117.34
2022-10-15T05:04:55.647Z,99125.09
2022-10-15T05:07:23.538Z,99112.88
2022-10-15T05:09:52.535Z,99122.69
2022-10-15T05:12:21.364Z,99127.94
2022-10-15T05:14:48.734Z,99118.69
2022-10-15T05:17:22.722Z,99126.91
2022-10-15T05:19:50.298Z,99131.84
2022-10-15T05:22:22.129Z,99130.13
2022-10-15T05:24:53.597Z,99132.03
2022-10-15T05:27:31.128Z,99121.66
2022-10-15T05:29:59.565Z,99135.78
2022-10-15T05:32:36.965Z,99134.25
2022-10-15T05:35:05.678Z,99144.81
2022-10-15T05:37:52.800Z,99142.06
2022-10-15T05:40:22.010Z,99156.84
2022-10-15T05:43:05.034Z,99146.13
2022-10-15T05:45:32.466Z,99135.69
2022-10-15T05:48:05.436Z,99135.44
2022-10-15T05:50:32.885Z,99133.94
2022-10-15T05:53:02.384Z,99141.59
2022-10-15T05:55:47.248Z,99137.63
2022-10-15T05:58:15.888Z,99133.88
2022-10-15T06:00:43.240Z,99144.56
2022-10-15T06:03:13.611Z,99137.31
2022-10-15T06:05:41.052Z,99142.00
2022-10-15T06:08:08.561Z,99148.59
2022-10-15T06:10:37.625Z,99142.16
2022-10-15T06:13:05.393Z,99149.19
2022-10-15T06:15:34.701Z,99146.19
2022-10-15T06:18:02.345Z,99152.22
2022-10-15T06:20:29.737Z,99149.25
2022-10-15T06:23:00.541Z,99153.75
2022-10-15T06:25:28.549Z,99150.59
2022-10-15T06:27:56.008Z,99152.53
2022-10-15T06:30:27.859Z,99157.84
2022-10-15T06:32:56.621Z,99153.84
2022-10-15T06:35:24.768Z,99160.25
2022-10-15T06:37:52.745Z,99162.63
2022-10-15T06:40:20.181Z,99170.59
2022-10-15T06:42:51.991Z,99171.88
2022-10-15T06:45:21.710Z,99169.84
2022-10-15T06:47:49.358Z,99180.34
2022-10-15T06:50:18.349Z,99195.09
2022-10-15T06:52:45.807Z,99191.25
2022-10-15T06:55:13.322Z,99191.16
2022-10-15T06:57:40.706Z,99187.81
2022-10-15T07:00:09.020Z,99188.63
2022-10-15T07:02:36.641Z,99183.66
2022-10-15T07:05:04.152Z,99179.38
2022-10-15T07:07:32.885Z,99183.53
2022-10-15T07:10:00.233Z,99184.94
2022-10-15T07:12:27.624Z,99191.66
2022-10-15T07:14:55.017Z,99201.31
2022-10-15T07:17:22.493Z,99199.78
2022-10-15T07:19:49.881Z,99198.03
2022-10-15T07:22:17.224Z,99200.88
2022-10-15T07:24:45.943Z,99196.88
2022-10-15T07:27:20.351Z,99187.88
2022-10-15T07:29:49.324Z,99199.53
2022-10-15T07:32:16.727Z,99203.94
2022-10-15T07:34:44.166Z,99196.22
2022-10-15T07:37:11.498Z,99207.31
2022-10-15T07:39:40.850Z,99217.09
2022-10-15T07:42:10.509Z,99208.63
2022-10-15T07:44:37.936Z,99208.16
2022-10-15T07:47:10.524Z,99211.13
2022-10-15T07:49:37.883Z,99209.13
2022-10-15T07:52:05.292Z,99212.63
2022-10-15T07:54:33.841Z,99212.50
2022-10-15T07:57:01.277Z,99215.38
2022-10-15T07:59:30.001Z,99216.22
2022-10-15T08:01:57.344Z,99213.06
2022-10-15T08:04:24.761Z,99207.03
2022-10-15T08:06:52.121Z,99219.88
2022-10-15T08:09:20.094Z,99214.84
2022-10-15T08:11:47.482Z,99214.41
2022-10-15T08:14:18.384Z,99211.59
2022-10-15T08:16:47.070Z,99209.06
2022-10-15T08:19:17.410Z,99202.91
2022-10-15T08:21:47.464Z,99204.19
2022-10-15T08:24:15.092Z,99199.56
2022-10-15T08:26:42.465Z,99200.09
2022-10-15T08:29:10.809Z,99195.78
2022-10-15T08:31:38.245Z,99194.19
2022-10-15T08:34:07.761Z,99189.44
2022-10-15T08:36:35.373Z,99185.78
2022-10-15T08:39:02.729Z,99177.09
2022-10-15T08:41:33.803Z,99185.03
2022-10-15T08:44:01.480Z,99178.00
2022-10-15T08:46:32.658Z,99178.56
2022-10-15T08:49:00.838Z,99179.75
2022-10-15T08:51:34.758Z,99166.38
2022-10-15T08:54:04.701Z,99167.28
2022-10-15T08:56:36.600Z,99166.97
2022-10-15T08:59:12.437Z,99171.72
2022-10-15T09:01:44.604Z,99173.53
2022-10-15T09:04:20.424Z,99181.56
2022-10-15T09:06:50.513Z,99175.16
2022-10-15T09:09:23.780Z,99179.69
2022-10-15T09:11:58.393Z,99184.63
2022-10-15T09:14:30.977Z,99184.16
2022-10-15T09:17:00.961Z,99176.50
2022-10-15T09:19:29.448Z,99173.31
2022-10-15T09:22:02.030Z,99163.78
2022-10-15T09:24:30.997Z,99174.00
2022-10-15T09:27:05.006Z,99170.16
2022-10-15T09:29:34.672Z,99178.66
2022-10-15T09:32:08.524Z,99180.09
2022-10-15T09:34:40.836Z,99167.34
2022-10-15T09:37:15.384Z,99178.78
2022-10-15T09:40:20.397Z,99180.13
2022-10-15T09:42:50.706Z,99177.41
2022-10-15T09:45:18.457Z,99173.72
2022-10-15T09:47:46.590Z,99177.25
2022-10-15T09:50:15.251Z,99168.13
2022-10-15T09:52:55.684Z,99168.06
2022-10-15T09:55:34.480Z,99166.00
2022-10-15T09:58:04.771Z,99160.91
2022-10-15T10:00:54.029Z,99174.84
2022-10-15T10:03:23.408Z,99170.91
2022-10-15T10:05:51.343Z,99182.22
2022-10-15T10:08:22.726Z,99172.34
2022-10-15T10:10:55.297Z,99167.72
2022-10-15T10:13:25.545Z,99173.97
2022-10-15T10:15:58.320Z,99173.09
2022-10-15T10:18:27.114Z,99179.69
2022-10-15T10:20:58.731Z,99175.88
2022-10-15T10:23:31.854Z,99184.94
2022-10-15T10:25:59.952Z,99183.56
2022-10-15T10:28:30.090Z,99184.16
2022-10-15T10:31:04.366Z,99180.28
2022-10-15T10:33:34.649Z,99182.56
2022-10-15T10:36:02.633Z,99185.06
2022-10-15T10:38:33.542Z,99187.81
2022-10-15T10:41:06.768Z,99186.53
2022-10-15T10:43:39.151Z,99188.31
2022-10-15T10:46:17.705Z,99179.78
2022-10-15T10:48:49.179Z,99180.19
2022-10-15T10:51:19.589Z,99181.63
2022-10-15T10:53:55.381Z,99161.59
2022-10-15T10:56:25.041Z,99158.06
2022-10-15T10:58:56.924Z,99153.75
2022-10-15T11:01:24.381Z,99155.63
2022-10-15T11:03:51.787Z,99149.31
2022-10-15T11:06:29.937Z,99143.88
2022-10-15T11:09:07.918Z,99137.00
2022-10-15T11:11:40.362Z,99129.88
2022-10-15T11:14:17.483Z,99118.63
2022-10-15T11:16:50.814Z,99122.34
2022-10-15T11:19:54.723Z,99117.78
2022-10-15T11:22:30.200Z,99118.47
2022-10-15T11:25:07.531Z,99107.59
2022-10-15T11:27:44.659Z,99112.81
2022-10-15T11:30:20.864Z,99110.97
2022-10-15T11:33:07.019Z,99105.03
2022-10-15T11:35:52.842Z,99102.25
2022-10-15T11:38:29.365Z,99097.47
2022-10-15T11:41:08.688Z,99098.41
2022-10-15T11:43:48.741Z,99092.13
2022-10-15T11:46:20.764Z,99091.25
2022-10-15T11:49:02.122Z,99080.69
2022-10-15T11:51:33.144Z,99090.06
2022-10-15T11:54:10.481Z,99096.09
2022-10-15T11:56:41.307Z,99089.69
2022-10-15T11:59:19.914Z,99078.50
2022-10-15T12:01:49.517Z,99089.94
2022-10-15T12:04:20.229Z,99089.75
2022-10-15T12:06:51.855Z,99087.81
2022-10-15T12:09:23.312Z,99087.13
2022-10-15T12:11:54.389Z,99088.94
2022-10-15T12:14:26.160Z,99077.34
2022-10-15T12:16:59.531Z,99073.53
2022-10-15T12:19:30.301Z,99071.81
2022-10-15T12:22:09.492Z,99069.25
2022-10-15T12:24:54.551Z,99067.47
2022-10-15T12:27:26.298Z,99065.97
2022-10-15T12:30:13.761Z,99065.97
2022-10-15T12:32:42.612Z,99057.16
2022-10-15T12:37:50.612Z,99052.97
2022-10-15T12:40:27.916Z,99057.81
2022-10-15T12:42:58.096Z,99051.97
2022-10-15T12:45:37.304Z,99059.78
2022-10-15T12:48:31.405Z,99048.56
2022-10-15T12:51:38.632Z,99041.38
2022-10-15T12:54:33.466Z,99038.22
2022-10-15T12:57:00.773Z,99036.66
2022-10-15T12:59:56.270Z,99023.84
2022-10-15T13:02:37.429Z,99026.72
2022-10-15T13:05:05.731Z,99030.03
2022-10-15T13:07:35.808Z,99032.06
2022-10-15T13:10:03.545Z,99028.34
2022-10-15T13:12:31.188Z,99029.47
2022-10-15T13:15:03.679Z,99035.78
2022-10-15T13:17:31.393Z,99038.56
2022-10-15T13:20:00.926Z,99039.09
2022-10-15T13:22:29.468Z,99040.56
2022-10-15T13:24:57.166Z,99041.69
2022-10-15T13:27:26.421Z,99036.44
2022-10-15T13:29:55.860Z,99025.09
2022-10-15T13:32:25.091Z,99032.41
2022-10-15T13:34:53.557Z,99025.25
2022-10-15T13:37:25.836Z,99021.31
2022-10-15T13:39:53.545Z,99014.06
2022-10-15T13:42:23.909Z,99017.91
2022-10-15T13:44:59.695Z,99020.00
2022-10-15T13:47:30.921Z,99017.22
2022-10-15T13:50:15.484Z,99012.25
2022-10-15T13:52:44.637Z,99013.75
2022-10-15T13:55:18.456Z,99019.28
2022-10-15T14:00:26.664Z,99017.00
2022-10-15T14:03:18.431Z,99016.94
2022-10-15T14:05:47.342Z,99019.59
2022-10-15T14:08:24.368Z,99020.25
2022-10-15T14:10:53.371Z,99011.19
2022-10-15T14:13:20.873Z,99002.63
2022-10-15T14:15:57.184Z,99012.84
2022-10-15T14:18:34.093Z,99007.38
2022-10-15T14:21:02.196Z,99010.78
2022-10-15T14:23:29.836Z,99011.78
2022-10-15T14:26:00.073Z,99008.09
2022-10-15T14:28:28.645Z,99018.38
2022-10-15T14:30:57.089Z,99012.53
2022-10-15T14:33:43.246Z,99007.22
2022-10-15T14:36:15.297Z,99010.78
2022-10-15T14:40:22.328Z,99009.38
2022-10-15T14:42:51.655Z,99015.22
2022-10-15T14:45:25.393Z,99014.25
2022-10-15T14:47:55.132Z,99007.53
2022-10-15T14:50:25.661Z,99019.22
2022-10-15T14:52:54.418Z,99016.44
2022-10-15T14:55:32.957Z,99021.41
2022-10-15T14:58:01.958Z,99015.94
2022-10-15T15:00:32.825Z,99017.50
2022-10-15T15:03:02.484Z,99025.16
2022-10-15T15:05:30.226Z,99014.53
2022-10-15T15:08:01.843Z,99023.00
2022-10-15T15:10:32.937Z,99012.63
2022-10-15T15:13:02.833Z,99011.38
2022-10-15T15:15:30.197Z,99013.50
2022-10-15T15:17:57.562Z,99017.41
2022-10-15T15:20:25.845Z,99013.47
2022-10-15T15:22:55.109Z,99024.59
2022-10-15T15:25:25.924Z,99032.88
2022-10-15T15:27:54.639Z,99025.56
2022-10-15T15:30:24.145Z,99028.09
2022-10-15T15:32:51.853Z,99028.66
2022-10-15T15:35:24.701Z,99036.13
2022-10-15T15:37:52.297Z,99039.81
2022-10-15T15:40:20.141Z,99028.56
2022-10-15T15:42:48.813Z,99025.28
2022-10-15T15:45:21.434Z,99034.38
2022-10-15T15:47:48.918Z,99029.03
2022-10-15T15:50:16.781Z,99028.50
2022-10-15T15:52:44.333Z,99036.78
2022-10-15T15:55:12.288Z,99032.63
2022-10-15T15:57:39.666Z,99031.09
2022-10-15T16:00:09.606Z,99023.56
2022-10-15T16:02:39.001Z,99022.84
2022-10-15T16:05:07.518Z,99017.13
2022-10-15T16:07:35.223Z,99028.88
2022-10-15T16:10:03.869Z,99032.19
2022-10-15T16:12:33.830Z,99025.63
2022-10-15T16:15:01.389Z,99030.03
2022-10-15T16:17:28.860Z,99033.38
2022-10-15T16:19:57.560Z,99034.88
2022-10-15T16:22:24.899Z,99038.25
2022-10-15T16:24:52.264Z,99041.44
2022-10-15T16:27:19.737Z,99036.78
2022-10-15T16:29:47.338Z,99037.69
2022-10-15T16:32:14.963Z,99033.16
2022-10-15T16:34:42.273Z,99034.53
2022-10-15T16:37:10.944Z,99034.59
2022-10-15T16:39:38.272Z,99042.81
2022-10-15T16:42:05.719Z,99054.41
2022-10-15T16:44:33.133Z,99047.66
2022-10-15T16:47:00.481Z,99054.75
2022-10-15T16:49:28.224Z,99061.25
2022-10-15T16:51:55.600Z,99058.31
2022-10-15T16:54:24.321Z,99055.63
2022-10-15T16:56:52.954Z,99057.91
2022-10-15T16:59:20.568Z,99063.63
2022-10-15T17:01:48.102Z,99065.38
2022-10-15T17:04:15.457Z,99067.94
2022-10-15T17:06:42.821Z,99073.31
2022-10-15T17:09:10.130Z,99072.19
2022-10-15T17:11:40.868Z,99077.16
2022-10-15T17:14:10.487Z,99088.59
2022-10-15T17:16:39.498Z,99097.88
2022-10-15T17:19:07.423Z,99092.47
2022-10-15T17:21:35.142Z,99120.00
2022-10-15T17:24:04.660Z,99122.81
2022-10-15T17:26:36.101Z,99113.00
2022-10-15T17:29:05.972Z,99121.94
2022-10-15T17:31:33.500Z,99127.94
2022-10-15T17:34:02.433Z,99130.50
2022-10-15T17:36:32.057Z,99119.25
2022-10-15T17:38:59.878Z,99125.13
2022-10-15T17:41:30.656Z,99142.38
2022-10-15T17:43:58.428Z,99149.16
2022-10-15T17:46:28.754Z,99155.22
2022-10-15T17:48:56.621Z,99157.56
2022-10-15T17:51:25.648Z,99165.59
2022-10-15T17:53:57.680Z,99169.22
2022-10-15T17:56:27.320Z,99176.66
2022-10-15T17:58:57.112Z,99184.16
2022-10-15T18:01:33.738Z,99183.56
2022-10-15T18:04:13.708Z,99183.25
2022-10-15T18:06:44.111Z,99195.16
2022-10-15T18:09:16.911Z,99196.88
2022-10-15T18:11:45.982Z,99195.13
2022-10-15T18:14:13.840Z,99199.69
2022-10-15T18:16:43.180Z,99201.28
2022-10-15T18:19:13.249Z,99209.50
2022-10-15T18:21:41.406Z,99221.06
2022-10-15T18:24:10.137Z,99241.16
2022-10-15T18:26:37.606Z,99253.09
2022-10-15T18:29:05.703Z,99249.47
2022-10-15T18:31:33.124Z,99255.22
2022-10-15T18:34:01.857Z,99245.97
2022-10-15T18:36:30.616Z,99251.34
2022-10-15T18:38:58.553Z,99248.75
2022-10-15T18:41:28.100Z,99250.53
2022-10-15T18:43:57.486Z,99258.03
2022-10-15T18:46:29.820Z,99251.25
2022-10-15T18:48:57.460Z,99260.13
2022-10-15T18:51:28.668Z,99252.19
2022-10-15T18:53:56.370Z,99269.69
2022-10-15T18:56:23.905Z,99266.41
2022-10-15T18:58:52.302Z,99272.72
2022-10-15T19:01:26.379Z,99281.34
2022-10-15T19:03:53.797Z,99285.16
2022-10-15T19:06:21.429Z,99285.09
2022-10-15T19:08:50.680Z,99281.63
2022-10-15T19:11:18.821Z,99286.59
2022-10-15T19:13:46.201Z,99292.09
2022-10-15T19:16:13.560Z,99296.97
2022-10-15T19:18:41.438Z,99297.91
2022-10-15T19:21:09.013Z,99314.56
2022-10-15T19:23:36.596Z,99309.19
2022-10-15T19:26:09.109Z,99324.63
2022-10-15T19:28:37.441Z,99319.59
2022-10-15T19:31:07.025Z,99318.84
2022-10-15T19:33:36.701Z,99315.50
2022-10-15T19:36:04.982Z,99322.41
2022-10-15T19:38:32.369Z,99320.97
2022-10-15T19:41:02.953Z,99320.22
2022-10-15T19:43:31.629Z,99334.44
2022-10-15T19:46:03.670Z,99331.91
2022-10-15T19:48:32.368Z,99339.88
2022-10-15T19:51:01.777Z,99338.53
2022-10-15T19:53:29.460Z,99340.94
2022-10-15T19:55:58.442Z,99347.94
2022-10-15T19:58:26.614Z,99343.13
2022-10-15T20:00:55.838Z,99352.06
2022-10-15T20:03:24.509Z,99357.03
2022-10-15T20:05:51.953Z,99364.31
2022-10-15T20:08:19.460Z,99364.19
2022-10-15T20:10:48.721Z,99372.59
2022-10-15T20:13:16.708Z,99371.13
2022-10-15T20:15:45.051Z,99368.19
2022-10-15T20:18:13.900Z,99384.56
2022-10-15T20:20:43.385Z,99394.81
2022-10-15T20:23:11.707Z,99385.81
2022-10-15T20:25:39.124Z,99397.63
2022-10-15T20:28:06.642Z,99398.81
2022-10-15T20:30:34.023Z,99405.91
2022-10-15T20:33:01.378Z,99409.47
2022-10-15T20:35:30.168Z,99416.06
2022-10-15T20:37:57.516Z,99403.97
2022-10-15T20:40:24.877Z,99412.88
2022-10-15T20:42:52.284Z,99421.09
2022-10-15T20:45:19.949Z,99421.53
2022-10-15T20:47:49.860Z,99421.38
2022-10-15T20:50:19.537Z,99423.25
2022-10-15T20:52:48.403Z,99420.13
2022-10-15T20:55:15.943Z,99420.88
2022-10-15T20:57:43.354Z,99423.81
2022-10-15T21:00:11.892Z,99426.50
2022-10-15T21:02:39.219Z,99419.13
2022-10-15T21:05:07.439Z,99424.06
2022-10-15T21:07:34.886Z,99427.03
2022-10-15T21:10:03.572Z,99436.53
2022-10-15T21:12:30.933Z,99442.28
2022-10-15T21:14:58.293Z,99431.13
2022-10-15T21:17:25.921Z,99438.03
2022-10-15T21:19:53.541Z,99440.41
2022-10-15T21:22:20.965Z,99442.72
2022-10-15T21:24:48.301Z,99435.09
2022-10-15T21:27:16.944Z,99430.44
2022-10-15T21:29:45.538Z,99437.44
2022-10-15T21:32:12.876Z,99443.38
2022-10-15T21:37:12.574Z,99457.84
2022-10-15T21:39:39.962Z,99466.28
2022-10-15T21:42:07.305Z,99462.75
2022-10-15T21:44:36.004Z,99464.19
2022-10-15T21:47:05.001Z,99459.44
2022-10-15T21:49:32.348Z,99458.22
2022-10-15T21:51:59.661Z,99465.44
2022-10-15T21:54:27.081Z,99462.75
2022-10-15T21:56:54.416Z,99466.03
2022-10-15T21:59:21.963Z,99465.22
2022-10-15T22:01:50.612Z,99477.53
2022-10-15T22:04:17.969Z,99482.31
2022-10-15T22:06:45.285Z,99485.78
2022-10-15T22:09:12.605Z,99483.09
2022-10-15T22:11:41.787Z,99483.09
2022-10-15T22:14:11.884Z,99476.47
2022-10-15T22:16:40.154Z,99484.00
2022-10-15T22:19:09.591Z,99493.72
2022-10-15T22:21:38.670Z,99495.50
2022-10-15T22:24:08.903Z,99491.88
2022-10-15T22:26:38.849Z,99497.16
2022-10-15T22:29:07.883Z,99506.41
2022-10-15T22:31:35.449Z,99504.91
2022-10-15T22:34:02.824Z,99502.63
2022-10-15T22:36:32.343Z,99511.09
2022-10-15T22:39:02.237Z,99503.44
2022-10-15T22:41:30.582Z,99497.72
2022-10-15T22:43:58.461Z,99509.44
2022-10-15T22:46:25.965Z,99500.34
2022-10-15T22:48:53.596Z,99495.56
2022-10-15T22:51:21.915Z,99501.66
2022-10-15T22:53:50.558Z,99493.34
2022-10-15T22:56:19.388Z,99490.31
2022-10-15T22:58:47.141Z,99492.56
2022-10-15T23:01:16.429Z,99496.28
2022-10-15T23:03:45.509Z,99502.03
2022-10-15T23:06:13.865Z,99495.25
2022-10-15T23:08:41.540Z,99511.72
2022-10-15T23:11:12.016Z,99508.19
2022-10-15T23:13:40.708Z,99509.69
2022-10-15T23:16:13.952Z,99512.53
2022-10-15T23:18:41.929Z,99507.41
2022-10-15T23:21:13.633Z,99515.69
2022-10-15T23:23:41.257Z,99508.25
2022-10-15T23:26:11.905Z,99504.50
2022-10-15T23:28:39.716Z,99518.09
2022-10-15T23:31:07.335Z,99519.78
2022-10-15T23:33:34.697Z,99518.13
2022-10-15T23:36:04.745Z,99522.47
2022-10-15T23:38:32.419Z,99527.81
2022-10-15T23:41:01.386Z,99516.91
2022-10-15T23:43:30.536Z,99530.47
2022-10-15T23:45:58.021Z,99524.31
2022-10-15T23:48:26.240Z,99531.91
2022-10-15T23:50:53.802Z,99513.19
2022-10-15T23:53:21.488Z,99523.66
2022-10-15T23:55:49.085Z,99517.91
2022-10-15T23:58:16.589Z,99515.25
